ENKB/KSU METAR and TAF weather

Enter ICAO airport designator
Station Type Date Time Source
ENKB METAR 2019/04/25 15:50 UTC NOAA

ENKB 251550Z 13012KT 090V150 CAVOK 18/04 Q1012 RMK WIND 745FT 14024KT


Station Type Date Time Source
ENKB Decoded METAR 2019/04/25 15:50 UTC NOAA

Kristiansund / Kvernberget, Norway (ENKB) 63-07N 007-50E 62M
Apr 25, 2019 - 11:50 AM EDT / 2019.04.25 1550 UTC
Wind: from the SE (130 degrees) at 14 MPH (12 KT) (direction variable):0
Visibility: greater than 7 mile(s):0
Temperature: 64 F (18 C)
Dew Point: 39 F (4 C)
Relative Humidity: 39%
Pressure (altimeter): 29.88 in. Hg (1012 hPa)
ob: ENKB 251550Z 13012KT 090V150 CAVOK 18/04 Q1012 RMK WIND 745FT 14024KT
cycle: 16

Station Type Date Time Source
ENKB TAF 2010/02/05 07:50 UTC NOAA

METAR ENKB 050750Z 15011KT 110V200 9999 SCT055 BKN070 03/M05 Q1007

Example: see airport list